sensor_id;sensor_type;location;lat;lon;timestamp;temperature;humidity
20546;DHT22;10431;50.228;9.112;2023-05-14T00:00:00;20.00;95.00
20546;DHT22;10431;50.228;9.112;2023-05-14T00:02:26;20.00;95.00
20546;DHT22;10431;50.228;9.112;2023-05-14T00:04:52;20.00;95.00
20546;DHT22;10431;50.228;9.112;2023-05-14T00:07:18;20.00;95.00
20546;DHT22;10431;50.228;9.112;2023-05-14T00:09:44;20.00;95.00
20546;DHT22;10431;50.228;9.112;2023-05-14T00:12:11;20.00;95.10
20546;DHT22;10431;50.228;9.112;2023-05-14T00:14:37;20.00;95.00
20546;DHT22;10431;50.228;9.112;2023-05-14T00:17:03;20.00;95.00
20546;DHT22;10431;50.228;9.112;2023-05-14T00:19:29;20.00;95.00
20546;DHT22;10431;50.228;9.112;2023-05-14T00:21:55;20.00;94.90
20546;DHT22;10431;50.228;9.112;2023-05-14T00:24:22;20.00;95.00
20546;DHT22;10431;50.228;9.112;2023-05-14T00:26:48;20.00;94.90
20546;DHT22;10431;50.228;9.112;2023-05-14T00:29:14;20.00;94.90
20546;DHT22;10431;50.228;9.112;2023-05-14T00:31:41;20.00;94.90
20546;DHT22;10431;50.228;9.112;2023-05-14T00:34:07;20.00;94.90
20546;DHT22;10431;50.228;9.112;2023-05-14T00:36:33;20.00;94.90
20546;DHT22;10431;50.228;9.112;2023-05-14T00:38:59;20.00;94.90
20546;DHT22;10431;50.228;9.112;2023-05-14T00:41:25;19.90;94.80
20546;DHT22;10431;50.228;9.112;2023-05-14T00:43:51;20.00;94.90
20546;DHT22;10431;50.228;9.112;2023-05-14T00:46:18;20.00;94.90
20546;DHT22;10431;50.228;9.112;2023-05-14T00:48:44;20.00;94.90
20546;DHT22;10431;50.228;9.112;2023-05-14T00:51:11;20.00;94.90
20546;DHT22;10431;50.228;9.112;2023-05-14T00:53:38;19.90;94.80
20546;DHT22;10431;50.228;9.112;2023-05-14T00:56:04;19.90;95.20
20546;DHT22;10431;50.228;9.112;2023-05-14T00:58:31;19.90;94.80
20546;DHT22;10431;50.228;9.112;2023-05-14T01:00:58;19.90;94.80
20546;DHT22;10431;50.228;9.112;2023-05-14T01:03:25;19.90;94.80
20546;DHT22;10431;50.228;9.112;2023-05-14T01:11:59;19.90;94.80
20546;DHT22;10431;50.228;9.112;2023-05-14T01:14:50;19.90;94.80
20546;DHT22;10431;50.228;9.112;2023-05-14T01:17:19;19.90;94.80
20546;DHT22;10431;50.228;9.112;2023-05-14T01:19:48;19.90;94.80
20546;DHT22;10431;50.228;9.112;2023-05-14T01:22:18;19.90;94.80
20546;DHT22;10431;50.228;9.112;2023-05-14T01:24:44;19.90;94.70
20546;DHT22;10431;50.228;9.112;2023-05-14T01:28:07;19.90;94.70
20546;DHT22;10431;50.228;9.112;2023-05-14T01:30:27;19.90;94.70
20546;DHT22;10431;50.228;9.112;2023-05-14T01:32:58;19.90;94.70
20546;DHT22;10431;50.228;9.112;2023-05-14T01:35:27;19.90;94.70
20546;DHT22;10431;50.228;9.112;2023-05-14T01:37:59;19.90;95.00
20546;DHT22;10431;50.228;9.112;2023-05-14T01:40:26;19.90;94.60
20546;DHT22;10431;50.228;9.112;2023-05-14T01:42:53;19.90;94.60
20546;DHT22;10431;50.228;9.112;2023-05-14T01:45:20;19.90;94.60
20546;DHT22;10431;50.228;9.112;2023-05-14T01:47:47;19.90;94.60
20546;DHT22;10431;50.228;9.112;2023-05-14T01:50:13;19.90;94.60
20546;DHT22;10431;50.228;9.112;2023-05-14T01:52:40;19.90;94.60
20546;DHT22;10431;50.228;9.112;2023-05-14T01:55:07;19.90;94.60
20546;DHT22;10431;50.228;9.112;2023-05-14T01:57:34;19.90;94.60
20546;DHT22;10431;50.228;9.112;2023-05-14T02:00:01;19.90;94.60
20546;DHT22;10431;50.228;9.112;2023-05-14T02:02:29;19.90;94.90
20546;DHT22;10431;50.228;9.112;2023-05-14T02:04:55;19.90;94.50
20546;DHT22;10431;50.228;9.112;2023-05-14T02:07:21;19.90;94.50
20546;DHT22;10431;50.228;9.112;2023-05-14T02:09:47;19.90;94.50
20546;DHT22;10431;50.228;9.112;2023-05-14T02:12:14;19.90;94.50
20546;DHT22;10431;50.228;9.112;2023-05-14T02:14:40;19.90;94.50
20546;DHT22;10431;50.228;9.112;2023-05-14T02:17:06;19.90;94.50
20546;DHT22;10431;50.228;9.112;2023-05-14T02:19:32;19.90;94.50
20546;DHT22;10431;50.228;9.112;2023-05-14T02:21:59;19.90;94.50
20546;DHT22;10431;50.228;9.112;2023-05-14T02:24:26;19.90;94.50
20546;DHT22;10431;50.228;9.112;2023-05-14T02:26:52;19.90;94.50
20546;DHT22;10431;50.228;9.112;2023-05-14T02:29:19;19.90;94.50
20546;DHT22;10431;50.228;9.112;2023-05-14T02:31:45;19.90;94.50
20546;DHT22;10431;50.228;9.112;2023-05-14T02:34:11;19.90;94.50
20546;DHT22;10431;50.228;9.112;2023-05-14T02:36:37;19.90;94.50
20546;DHT22;10431;50.228;9.112;2023-05-14T02:39:03;19.90;94.50
20546;DHT22;10431;50.228;9.112;2023-05-14T02:41:30;19.90;94.50
20546;DHT22;10431;50.228;9.112;2023-05-14T02:43:56;19.90;94.50
20546;DHT22;10431;50.228;9.112;2023-05-14T02:46:22;19.80;94.40
20546;DHT22;10431;50.228;9.112;2023-05-14T02:48:48;19.90;94.50
20546;DHT22;10431;50.228;9.112;2023-05-14T02:51:15;19.90;94.50
20546;DHT22;10431;50.228;9.112;2023-05-14T02:53:41;19.80;94.40
20546;DHT22;10431;50.228;9.112;2023-05-14T02:56:08;19.80;94.40
20546;DHT22;10431;50.228;9.112;2023-05-14T02:58:34;19.80;94.40
20546;DHT22;10431;50.228;9.112;2023-05-14T03:01:00;19.80;94.40
20546;DHT22;10431;50.228;9.112;2023-05-14T03:03:28;19.80;94.40
20546;DHT22;10431;50.228;9.112;2023-05-14T03:05:55;19.80;94.40
20546;DHT22;10431;50.228;9.112;2023-05-14T03:08:21;19.80;94.40
20546;DHT22;10431;50.228;9.112;2023-05-14T03:10:47;19.80;94.70
20546;DHT22;10431;50.228;9.112;2023-05-14T03:13:13;19.80;94.40
20546;DHT22;10431;50.228;9.112;2023-05-14T03:15:43;19.80;94.70
20546;DHT22;10431;50.228;9.112;2023-05-14T03:18:09;19.80;94.40
20546;DHT22;10431;50.228;9.112;2023-05-14T03:20:35;19.80;94.40
20546;DHT22;10431;50.228;9.112;2023-05-14T03:23:02;19.80;94.40
20546;DHT22;10431;50.228;9.112;2023-05-14T03:25:28;19.80;94.40
20546;DHT22;10431;50.228;9.112;2023-05-14T03:27:54;19.80;94.40
20546;DHT22;10431;50.228;9.112;2023-05-14T03:30:20;19.80;94.40
20546;DHT22;10431;50.228;9.112;2023-05-14T03:32:47;19.80;94.40
20546;DHT22;10431;50.228;9.112;2023-05-14T03:35:14;19.80;94.40
20546;DHT22;10431;50.228;9.112;2023-05-14T03:37:40;19.80;94.30
20546;DHT22;10431;50.228;9.112;2023-05-14T03:40:07;19.80;94.40
20546;DHT22;10431;50.228;9.112;2023-05-14T03:42:35;19.80;94.30
20546;DHT22;10431;50.228;9.112;2023-05-14T03:45:02;19.80;94.30
20546;DHT22;10431;50.228;9.112;2023-05-14T03:47:28;19.80;94.30
20546;DHT22;10431;50.228;9.112;2023-05-14T03:49:56;19.80;94.30
20546;DHT22;10431;50.228;9.112;2023-05-14T03:52:22;19.80;94.60
20546;DHT22;10431;50.228;9.112;2023-05-14T03:54:49;19.80;94.30
20546;DHT22;10431;50.228;9.112;2023-05-14T03:57:15;19.80;94.30
20546;DHT22;10431;50.228;9.112;2023-05-14T03:59:41;19.80;94.30
20546;DHT22;10431;50.228;9.112;2023-05-14T04:02:07;19.80;94.30
20546;DHT22;10431;50.228;9.112;2023-05-14T04:04:33;19.80;94.30
20546;DHT22;10431;50.228;9.112;2023-05-14T04:07:01;19.80;94.30
20546;DHT22;10431;50.228;9.112;2023-05-14T04:09:28;19.80;94.30
20546;DHT22;10431;50.228;9.112;2023-05-14T04:11:54;19.80;94.60
20546;DHT22;10431;50.228;9.112;2023-05-14T04:14:20;19.80;94.30
20546;DHT22;10431;50.228;9.112;2023-05-14T04:16:47;19.80;94.30
20546;DHT22;10431;50.228;9.112;2023-05-14T04:19:13;19.80;94.30
20546;DHT22;10431;50.228;9.112;2023-05-14T04:21:39;19.80;94.30
20546;DHT22;10431;50.228;9.112;2023-05-14T04:24:06;19.80;94.30
20546;DHT22;10431;50.228;9.112;2023-05-14T04:26:32;19.80;94.20
20546;DHT22;10431;50.228;9.112;2023-05-14T04:28:58;19.80;94.30
20546;DHT22;10431;50.228;9.112;2023-05-14T04:31:28;19.80;94.30
20546;DHT22;10431;50.228;9.112;2023-05-14T04:33:55;19.80;94.30
20546;DHT22;10431;50.228;9.112;2023-05-14T04:36:21;19.80;94.20
20546;DHT22;10431;50.228;9.112;2023-05-14T04:38:47;19.80;94.30
20546;DHT22;10431;50.228;9.112;2023-05-14T04:41:13;19.80;94.20
20546;DHT22;10431;50.228;9.112;2023-05-14T04:43:39;19.80;94.20
20546;DHT22;10431;50.228;9.112;2023-05-14T04:46:06;19.80;94.20
20546;DHT22;10431;50.228;9.112;2023-05-14T04:48:32;19.80;94.20
20546;DHT22;10431;50.228;9.112;2023-05-14T04:50:58;19.80;94.20
20546;DHT22;10431;50.228;9.112;2023-05-14T04:53:24;19.80;94.20
20546;DHT22;10431;50.228;9.112;2023-05-14T04:55:50;19.80;94.20
20546;DHT22;10431;50.228;9.112;2023-05-14T04:58:16;19.80;94.20
20546;DHT22;10431;50.228;9.112;2023-05-14T05:00:43;19.80;94.20
20546;DHT22;10431;50.228;9.112;2023-05-14T05:03:09;19.80;94.20
20546;DHT22;10431;50.228;9.112;2023-05-14T05:05:35;19.80;94.20
20546;DHT22;10431;50.228;9.112;2023-05-14T05:08:02;19.70;94.20
20546;DHT22;10431;50.228;9.112;2023-05-14T05:10:28;19.80;94.20
20546;DHT22;10431;50.228;9.112;2023-05-14T05:12:54;19.80;94.20
20546;DHT22;10431;50.228;9.112;2023-05-14T05:15:20;19.80;94.20
20546;DHT22;10431;50.228;9.112;2023-05-14T05:17:46;19.80;94.20
20546;DHT22;10431;50.228;9.112;2023-05-14T05:20:13;19.80;94.10
20546;DHT22;10431;50.228;9.112;2023-05-14T05:22:39;19.80;94.10
20546;DHT22;10431;50.228;9.112;2023-05-14T05:25:05;19.80;94.10
20546;DHT22;10431;50.228;9.112;2023-05-14T05:27:33;19.80;94.10
20546;DHT22;10431;50.228;9.112;2023-05-14T05:30:00;19.80;94.10
20546;DHT22;10431;50.228;9.112;2023-05-14T05:32:27;19.80;94.10
20546;DHT22;10431;50.228;9.112;2023-05-14T05:34:53;19.80;94.10
20546;DHT22;10431;50.228;9.112;2023-05-14T05:37:19;19.80;94.10
20546;DHT22;10431;50.228;9.112;2023-05-14T05:39:45;19.80;94.30
20546;DHT22;10431;50.228;9.112;2023-05-14T05:42:13;19.80;94.10
20546;DHT22;10431;50.228;9.112;2023-05-14T05:44:39;19.80;94.10
20546;DHT22;10431;50.228;9.112;2023-05-14T05:47:05;19.80;94.10
20546;DHT22;10431;50.228;9.112;2023-05-14T05:49:32;19.80;94.10
20546;DHT22;10431;50.228;9.112;2023-05-14T05:51:58;19.80;94.20
20546;DHT22;10431;50.228;9.112;2023-05-14T05:54:24;19.80;94.20
20546;DHT22;10431;50.228;9.112;2023-05-14T05:56:52;19.80;94.10
20546;DHT22;10431;50.228;9.112;2023-05-14T05:59:18;19.80;94.10
20546;DHT22;10431;50.228;9.112;2023-05-14T06:01:44;19.80;94.00
20546;DHT22;10431;50.228;9.112;2023-05-14T06:04:10;19.80;93.90
20546;DHT22;10431;50.228;9.112;2023-05-14T06:06:36;19.90;93.90
20546;DHT22;10431;50.228;9.112;2023-05-14T06:09:03;19.90;93.80
20546;DHT22;10431;50.228;9.112;2023-05-14T06:11:29;19.90;93.90
20546;DHT22;10431;50.228;9.112;2023-05-14T06:13:55;19.90;93.80
20546;DHT22;10431;50.228;9.112;2023-05-14T06:16:22;20.00;94.00
20546;DHT22;10431;50.228;9.112;2023-05-14T06:18:48;20.00;94.00
20546;DHT22;10431;50.228;9.112;2023-05-14T06:21:14;20.00;94.00
20546;DHT22;10431;50.228;9.112;2023-05-14T06:23:40;20.00;94.00
20546;DHT22;10431;50.228;9.112;2023-05-14T06:26:06;20.10;94.10
20546;DHT22;10431;50.228;9.112;2023-05-14T06:28:32;20.10;94.00
20546;DHT22;10431;50.228;9.112;2023-05-14T06:30:59;20.00;94.00
20546;DHT22;10431;50.228;9.112;2023-05-14T06:33:25;20.10;94.10
20546;DHT22;10431;50.228;9.112;2023-05-14T06:36:05;20.00;94.10
20546;DHT22;10431;50.228;9.112;2023-05-14T06:38:31;20.10;94.10
20546;DHT22;10431;50.228;9.112;2023-05-14T06:40:58;20.10;94.00
20546;DHT22;10431;50.228;9.112;2023-05-14T06:43:24;20.10;94.10
20546;DHT22;10431;50.228;9.112;2023-05-14T06:45:51;20.10;94.00
20546;DHT22;10431;50.228;9.112;2023-05-14T06:48:17;20.10;93.90
20546;DHT22;10431;50.228;9.112;2023-05-14T06:50:45;20.10;93.80
20546;DHT22;10431;50.228;9.112;2023-05-14T06:53:11;20.20;93.70
20546;DHT22;10431;50.228;9.112;2023-05-14T06:55:37;20.20;93.50
20546;DHT22;10431;50.228;9.112;2023-05-14T06:58:06;20.20;93.40
20546;DHT22;10431;50.228;9.112;2023-05-14T07:00:32;20.20;93.10
20546;DHT22;10431;50.228;9.112;2023-05-14T07:02:58;20.20;93.10
20546;DHT22;10431;50.228;9.112;2023-05-14T07:05:25;20.20;92.90
20546;DHT22;10431;50.228;9.112;2023-05-14T07:07:51;20.30;92.80
20546;DHT22;10431;50.228;9.112;2023-05-14T07:10:17;20.30;92.60
20546;DHT22;10431;50.228;9.112;2023-05-14T07:12:43;20.30;92.40
20546;DHT22;10431;50.228;9.112;2023-05-14T07:15:10;20.30;92.40
20546;DHT22;10431;50.228;9.112;2023-05-14T07:17:37;20.30;92.30
20546;DHT22;10431;50.228;9.112;2023-05-14T07:20:03;20.30;92.20
20546;DHT22;10431;50.228;9.112;2023-05-14T07:22:30;20.30;92.30
20546;DHT22;10431;50.228;9.112;2023-05-14T07:24:56;20.40;92.20
20546;DHT22;10431;50.228;9.112;2023-05-14T07:27:22;20.40;92.40
20546;DHT22;10431;50.228;9.112;2023-05-14T07:29:49;20.50;92.20
20546;DHT22;10431;50.228;9.112;2023-05-14T07:32:15;20.40;92.10
20546;DHT22;10431;50.228;9.112;2023-05-14T07:34:41;20.40;92.10
20546;DHT22;10431;50.228;9.112;2023-05-14T07:37:08;20.40;92.10
20546;DHT22;10431;50.228;9.112;2023-05-14T07:39:34;20.40;91.90
20546;DHT22;10431;50.228;9.112;2023-05-14T07:42:01;20.40;91.90
20546;DHT22;10431;50.228;9.112;2023-05-14T07:44:27;20.30;92.00
20546;DHT22;10431;50.228;9.112;2023-05-14T07:46:53;20.30;91.60
20546;DHT22;10431;50.228;9.112;2023-05-14T07:49:19;20.30;91.60
20546;DHT22;10431;50.228;9.112;2023-05-14T07:51:46;20.30;91.50
20546;DHT22;10431;50.228;9.112;2023-05-14T07:54:12;20.30;91.50
20546;DHT22;10431;50.228;9.112;2023-05-14T07:56:38;20.30;91.40
20546;DHT22;10431;50.228;9.112;2023-05-14T07:59:04;20.30;91.40
20546;DHT22;10431;50.228;9.112;2023-05-14T08:01:32;20.30;91.50
20546;DHT22;10431;50.228;9.112;2023-05-14T08:03:58;20.30;91.40
20546;DHT22;10431;50.228;9.112;2023-05-14T08:06:24;20.30;91.40
20546;DHT22;10431;50.228;9.112;2023-05-14T08:08:52;20.30;91.40
20546;DHT22;10431;50.228;9.112;2023-05-14T08:11:19;20.30;91.60
20546;DHT22;10431;50.228;9.112;2023-05-14T08:13:46;20.30;91.70
20546;DHT22;10431;50.228;9.112;2023-05-14T08:16:12;20.30;91.80
20546;DHT22;10431;50.228;9.112;2023-05-14T08:18:38;20.30;91.90
20546;DHT22;10431;50.228;9.112;2023-05-14T08:21:05;20.40;92.00
20546;DHT22;10431;50.228;9.112;2023-05-14T08:23:31;20.40;92.10
20546;DHT22;10431;50.228;9.112;2023-05-14T08:25:57;20.40;92.20
20546;DHT22;10431;50.228;9.112;2023-05-14T08:28:24;20.40;92.20
20546;DHT22;10431;50.228;9.112;2023-05-14T08:30:51;20.40;92.20
20546;DHT22;10431;50.228;9.112;2023-05-14T08:33:17;20.40;92.30
20546;DHT22;10431;50.228;9.112;2023-05-14T08:35:43;20.30;92.30
20546;DHT22;10431;50.228;9.112;2023-05-14T08:38:09;20.30;92.40
20546;DHT22;10431;50.228;9.112;2023-05-14T08:40:36;20.30;92.40
20546;DHT22;10431;50.228;9.112;2023-05-14T08:43:02;20.30;92.50
20546;DHT22;10431;50.228;9.112;2023-05-14T08:45:30;20.30;92.50
20546;DHT22;10431;50.228;9.112;2023-05-14T08:47:59;20.30;92.60
20546;DHT22;10431;50.228;9.112;2023-05-14T08:50:30;20.20;92.60
20546;DHT22;10431;50.228;9.112;2023-05-14T08:52:57;20.20;92.90
20546;DHT22;10431;50.228;9.112;2023-05-14T08:55:23;20.20;92.60
20546;DHT22;10431;50.228;9.112;2023-05-14T08:57:51;20.20;92.60
20546;DHT22;10431;50.228;9.112;2023-05-14T09:00:17;20.20;92.70
20546;DHT22;10431;50.228;9.112;2023-05-14T09:02:45;20.20;92.70
20546;DHT22;10431;50.228;9.112;2023-05-14T09:05:13;20.20;92.70
20546;DHT22;10431;50.228;9.112;2023-05-14T09:07:40;20.20;92.70
20546;DHT22;10431;50.228;9.112;2023-05-14T09:10:07;20.20;92.70
20546;DHT22;10431;50.228;9.112;2023-05-14T09:12:34;20.20;92.70
20546;DHT22;10431;50.228;9.112;2023-05-14T09:15:00;20.20;92.70
20546;DHT22;10431;50.228;9.112;2023-05-14T09:17:27;20.20;92.70
20546;DHT22;10431;50.228;9.112;2023-05-14T09:19:53;20.20;92.70
20546;DHT22;10431;50.228;9.112;2023-05-14T09:22:19;20.20;92.70
20546;DHT22;10431;50.228;9.112;2023-05-14T09:25:09;20.20;92.70
20546;DHT22;10431;50.228;9.112;2023-05-14T09:27:37;20.20;92.70
20546;DHT22;10431;50.228;9.112;2023-05-14T09:30:05;20.10;92.70
20546;DHT22;10431;50.228;9.112;2023-05-14T09:32:40;20.10;92.70
20546;DHT22;10431;50.228;9.112;2023-05-14T09:35:13;20.10;92.70
20546;DHT22;10431;50.228;9.112;2023-05-14T09:37:43;20.10;92.70
20546;DHT22;10431;50.228;9.112;2023-05-14T09:40:11;20.10;92.70
20546;DHT22;10431;50.228;9.112;2023-05-14T09:42:37;20.10;92.70
20546;DHT22;10431;50.228;9.112;2023-05-14T09:45:05;20.10;92.70
20546;DHT22;10431;50.228;9.112;2023-05-14T09:47:31;20.10;92.70
20546;DHT22;10431;50.228;9.112;2023-05-14T09:49:57;20.10;92.60
20546;DHT22;10431;50.228;9.112;2023-05-14T09:52:24;20.10;92.60
20546;DHT22;10431;50.228;9.112;2023-05-14T09:54:51;20.10;92.50
20546;DHT22;10431;50.228;9.112;2023-05-14T09:57:19;20.10;92.50
20546;DHT22;10431;50.228;9.112;2023-05-14T09:59:45;20.10;92.30
20546;DHT22;10431;50.228;9.112;2023-05-14T10:02:36;20.10;92.30
20546;DHT22;10431;50.228;9.112;2023-05-14T10:05:04;20.10;92.00
20546;DHT22;10431;50.228;9.112;2023-05-14T10:07:45;20.00;92.40
20546;DHT22;10431;50.228;9.112;2023-05-14T10:10:20;20.00;91.80
20546;DHT22;10431;50.228;9.112;2023-05-14T10:13:01;20.10;91.90
20546;DHT22;10431;50.228;9.112;2023-05-14T10:15:36;20.10;91.80
20546;DHT22;10431;50.228;9.112;2023-05-14T10:18:09;20.00;91.60
20546;DHT22;10431;50.228;9.112;2023-05-14T10:20:37;20.00;91.60
20546;DHT22;10431;50.228;9.112;2023-05-14T10:23:05;20.00;91.90
20546;DHT22;10431;50.228;9.112;2023-05-14T10:25:36;20.10;91.50
20546;DHT22;10431;50.228;9.112;2023-05-14T10:28:03;20.00;91.30
20546;DHT22;10431;50.228;9.112;2023-05-14T10:30:31;20.00;91.20
20546;DHT22;10431;50.228;9.112;2023-05-14T10:33:11;20.00;91.10
20546;DHT22;10431;50.228;9.112;2023-05-14T10:35:51;20.10;91.00
20546;DHT22;10431;50.228;9.112;2023-05-14T10:38:21;20.00;91.00
20546;DHT22;10431;50.228;9.112;2023-05-14T10:40:48;20.00;90.80
20546;DHT22;10431;50.228;9.112;2023-05-14T10:43:15;20.00;90.70
20546;DHT22;10431;50.228;9.112;2023-05-14T10:45:43;20.00;90.40
20546;DHT22;10431;50.228;9.112;2023-05-14T10:48:10;19.90;85.80
20546;DHT22;10431;50.228;9.112;2023-05-14T10:50:37;19.80;83.40
20546;DHT22;10431;50.228;9.112;2023-05-14T10:53:03;19.80;84.30
20546;DHT22;10431;50.228;9.112;2023-05-14T10:55:30;19.70;83.40
20546;DHT22;10431;50.228;9.112;2023-05-14T10:57:57;19.70;83.50
20546;DHT22;10431;50.228;9.112;2023-05-14T11:00:24;19.70;83.50
20546;DHT22;10431;50.228;9.112;2023-05-14T11:02:55;19.60;83.40
20546;DHT22;10431;50.228;9.112;2023-05-14T11:05:22;19.60;83.10
20546;DHT22;10431;50.228;9.112;2023-05-14T11:07:56;19.60;82.10
20546;DHT22;10431;50.228;9.112;2023-05-14T11:10:23;19.60;82.20
20546;DHT22;10431;50.228;9.112;2023-05-14T11:12:56;19.60;82.90
20546;DHT22;10431;50.228;9.112;2023-05-14T11:15:24;19.60;82.60
20546;DHT22;10431;50.228;9.112;2023-05-14T11:17:52;19.60;82.50
20546;DHT22;10431;50.228;9.112;2023-05-14T11:20:19;19.60;82.50
20546;DHT22;10431;50.228;9.112;2023-05-14T11:22:47;19.60;82.50
20546;DHT22;10431;50.228;9.112;2023-05-14T11:25:14;19.60;82.40
20546;DHT22;10431;50.228;9.112;2023-05-14T11:27:43;19.60;82.20
20546;DHT22;10431;50.228;9.112;2023-05-14T11:30:14;19.60;82.30
20546;DHT22;10431;50.228;9.112;2023-05-14T11:32:42;19.60;82.00
20546;DHT22;10431;50.228;9.112;2023-05-14T11:35:08;19.60;82.50
20546;DHT22;10431;50.228;9.112;2023-05-14T11:37:35;19.60;82.50
20546;DHT22;10431;50.228;9.112;2023-05-14T11:40:01;19.60;82.50
20546;DHT22;10431;50.228;9.112;2023-05-14T11:42:28;19.60;82.20
20546;DHT22;10431;50.228;9.112;2023-05-14T11:44:54;19.70;83.20
20546;DHT22;10431;50.228;9.112;2023-05-14T11:47:21;19.70;82.10
20546;DHT22;10431;50.228;9.112;2023-05-14T11:49:48;19.70;82.40
20546;DHT22;10431;50.228;9.112;2023-05-14T11:52:15;19.70;82.40
20546;DHT22;10431;50.228;9.112;2023-05-14T11:54:44;19.60;82.90
20546;DHT22;10431;50.228;9.112;2023-05-14T11:57:15;19.60;83.00
20546;DHT22;10431;50.228;9.112;2023-05-14T11:59:42;19.60;82.40
20546;DHT22;10431;50.228;9.112;2023-05-14T12:02:13;19.70;82.60
20546;DHT22;10431;50.228;9.112;2023-05-14T12:04:41;19.70;82.70
20546;DHT22;10431;50.228;9.112;2023-05-14T12:07:09;19.70;83.10
20546;DHT22;10431;50.228;9.112;2023-05-14T12:09:38;19.80;83.20
20546;DHT22;10431;50.228;9.112;2023-05-14T12:12:11;19.80;83.70
20546;DHT22;10431;50.228;9.112;2023-05-14T12:14:39;19.80;83.80
20546;DHT22;10431;50.228;9.112;2023-05-14T12:17:18;19.80;83.50
20546;DHT22;10431;50.228;9.112;2023-05-14T12:19:46;19.90;84.10
20546;DHT22;10431;50.228;9.112;2023-05-14T12:22:15;19.90;85.00
20546;DHT22;10431;50.228;9.112;2023-05-14T12:24:58;19.90;86.00
20546;DHT22;10431;50.228;9.112;2023-05-14T12:27:27;19.90;86.30
20546;DHT22;10431;50.228;9.112;2023-05-14T12:30:02;19.90;85.90
20546;DHT22;10431;50.228;9.112;2023-05-14T12:32:33;19.90;86.20
20546;DHT22;10431;50.228;9.112;2023-05-14T12:34:59;19.90;86.30
20546;DHT22;10431;50.228;9.112;2023-05-14T12:37:28;19.90;86.60
20546;DHT22;10431;50.228;9.112;2023-05-14T12:39:57;19.90;86.30
20546;DHT22;10431;50.228;9.112;2023-05-14T12:42:23;19.90;86.60
20546;DHT22;10431;50.228;9.112;2023-05-14T12:44:50;19.90;86.10
20546;DHT22;10431;50.228;9.112;2023-05-14T12:47:16;19.90;85.90
20546;DHT22;10431;50.228;9.112;2023-05-14T12:49:42;19.90;85.60
20546;DHT22;10431;50.228;9.112;2023-05-14T12:52:08;19.90;86.40
20546;DHT22;10431;50.228;9.112;2023-05-14T12:54:35;19.90;85.60
20546;DHT22;10431;50.228;9.112;2023-05-14T12:57:02;20.00;85.40
20546;DHT22;10431;50.228;9.112;2023-05-14T12:59:29;19.90;85.60
20546;DHT22;10431;50.228;9.112;2023-05-14T13:01:55;20.00;85.90
20546;DHT22;10431;50.228;9.112;2023-05-14T13:04:21;19.90;86.00
20546;DHT22;10431;50.228;9.112;2023-05-14T13:06:47;20.00;85.40
20546;DHT22;10431;50.228;9.112;2023-05-14T13:09:13;20.00;85.60
20546;DHT22;10431;50.228;9.112;2023-05-14T13:11:40;20.00;85.20
20546;DHT22;10431;50.228;9.112;2023-05-14T13:14:06;20.00;85.70
20546;DHT22;10431;50.228;9.112;2023-05-14T13:16:32;20.00;85.20
20546;DHT22;10431;50.228;9.112;2023-05-14T13:18:59;20.00;85.10
20546;DHT22;10431;50.228;9.112;2023-05-14T13:21:25;20.00;84.80
20546;DHT22;10431;50.228;9.112;2023-05-14T13:23:51;20.00;84.80
20546;DHT22;10431;50.228;9.112;2023-05-14T13:26:17;20.00;85.00
20546;DHT22;10431;50.228;9.112;2023-05-14T13:28:43;20.00;85.40
20546;DHT22;10431;50.228;9.112;2023-05-14T13:31:11;20.00;84.70
20546;DHT22;10431;50.228;9.112;2023-05-14T13:33:40;20.00;84.30
20546;DHT22;10431;50.228;9.112;2023-05-14T13:36:07;20.00;85.00
20546;DHT22;10431;50.228;9.112;2023-05-14T13:38:34;20.00;84.30
20546;DHT22;10431;50.228;9.112;2023-05-14T13:41:00;20.00;84.00
20546;DHT22;10431;50.228;9.112;2023-05-14T13:43:32;20.10;85.30
20546;DHT22;10431;50.228;9.112;2023-05-14T13:45:58;20.10;85.20
20546;DHT22;10431;50.228;9.112;2023-05-14T13:48:25;20.20;84.80
20546;DHT22;10431;50.228;9.112;2023-05-14T13:50:52;20.20;84.70
20546;DHT22;10431;50.228;9.112;2023-05-14T13:53:19;20.30;84.60
20546;DHT22;10431;50.228;9.112;2023-05-14T13:55:46;20.30;85.90
20546;DHT22;10431;50.228;9.112;2023-05-14T13:58:12;20.40;87.10
20546;DHT22;10431;50.228;9.112;2023-05-14T14:00:39;20.50;87.60
20546;DHT22;10431;50.228;9.112;2023-05-14T14:03:06;20.50;86.30
20546;DHT22;10431;50.228;9.112;2023-05-14T14:05:34;20.50;86.50
20546;DHT22;10431;50.228;9.112;2023-05-14T14:08:00;20.50;86.70
20546;DHT22;10431;50.228;9.112;2023-05-14T14:10:27;20.50;87.60
20546;DHT22;10431;50.228;9.112;2023-05-14T14:12:53;20.50;88.20
20546;DHT22;10431;50.228;9.112;2023-05-14T14:15:19;20.50;87.40
20546;DHT22;10431;50.228;9.112;2023-05-14T14:17:47;20.50;87.40
20546;DHT22;10431;50.228;9.112;2023-05-14T14:20:14;20.50;87.80
20546;DHT22;10431;50.228;9.112;2023-05-14T14:22:42;20.60;88.60
20546;DHT22;10431;50.228;9.112;2023-05-14T14:25:10;20.60;89.20
20546;DHT22;10431;50.228;9.112;2023-05-14T14:27:38;20.60;88.20
20546;DHT22;10431;50.228;9.112;2023-05-14T14:30:06;20.60;89.10
20546;DHT22;10431;50.228;9.112;2023-05-14T14:32:32;20.60;89.10
20546;DHT22;10431;50.228;9.112;2023-05-14T14:34:59;20.60;89.10
20546;DHT22;10431;50.228;9.112;2023-05-14T14:37:25;20.60;89.50
20546;DHT22;10431;50.228;9.112;2023-05-14T14:39:51;20.60;88.90
20546;DHT22;10431;50.228;9.112;2023-05-14T14:42:17;20.50;88.60
20546;DHT22;10431;50.228;9.112;2023-05-14T14:44:43;20.40;87.50
20546;DHT22;10431;50.228;9.112;2023-05-14T14:47:11;20.40;87.00
20546;DHT22;10431;50.228;9.112;2023-05-14T14:49:37;20.30;86.40
20546;DHT22;10431;50.228;9.112;2023-05-14T14:52:03;20.20;86.70
20546;DHT22;10431;50.228;9.112;2023-05-14T14:54:30;20.10;86.10
20546;DHT22;10431;50.228;9.112;2023-05-14T14:56:56;20.10;85.50
20546;DHT22;10431;50.228;9.112;2023-05-14T14:59:22;20.00;87.00
20546;DHT22;10431;50.228;9.112;2023-05-14T15:01:49;20.00;86.60
20546;DHT22;10431;50.228;9.112;2023-05-14T15:04:15;20.00;87.20
20546;DHT22;10431;50.228;9.112;2023-05-14T15:06:41;20.00;87.00
20546;DHT22;10431;50.228;9.112;2023-05-14T15:09:07;20.00;86.90
20546;DHT22;10431;50.228;9.112;2023-05-14T15:11:34;20.00;87.00
20546;DHT22;10431;50.228;9.112;2023-05-14T15:14:00;20.00;87.00
20546;DHT22;10431;50.228;9.112;2023-05-14T15:16:26;19.90;86.90
20546;DHT22;10431;50.228;9.112;2023-05-14T15:18:52;19.90;86.80
20546;DHT22;10431;50.228;9.112;2023-05-14T15:21:19;19.90;86.60
20546;DHT22;10431;50.228;9.112;2023-05-14T15:23:45;19.90;86.70
20546;DHT22;10431;50.228;9.112;2023-05-14T15:26:11;19.90;86.50
20546;DHT22;10431;50.228;9.112;2023-05-14T15:28:38;19.90;86.40
20546;DHT22;10431;50.228;9.112;2023-05-14T15:31:04;19.90;86.50
20546;DHT22;10431;50.228;9.112;2023-05-14T15:33:31;19.90;86.50
20546;DHT22;10431;50.228;9.112;2023-05-14T15:35:58;19.90;86.10